Date,TemperatureHighF,TemperatureAvgF,TemperatureLowF,DewpointHighF,DewpointAvgF,DewpointLowF,HumidityHigh,HumidityAvg,HumidityLow,PressureMaxIn,PressureMinIn,WindSpeedMaxMPH,WindSpeedAvgMPH,GustSpeedMaxMPH,PrecipitationSumIn
2013-4-1,61,47,38,47,37,14,98,73,31,29.92,29.63,36,11,45,0.03
2013-4-2,42,37,32,18,13,11,52,36,26,30.10,29.92,35,16,43,0.01
2013-4-3,44,38,32,16,14,11,49,35,26,30.31,30.07,37,17,40,0.00
2013-4-4,47,39,32,35,23,14,78,52,35,30.41,30.12,32,10,33,0.00
2013-4-5,59,47,40,37,28,14,79,53,20,30.12,29.71,32,11,41,0.00
2013-4-6,48,41,34,32,18,4,70,40,17,30.35,30.00,25,10,30,0.00
2013-4-7,50,44,39,44,37,32,89,75,62,30.35,30.04,26,11,28,0.00
2013-4-8,66,51,41,47,43,40,96,76,39,30.13,30.01,11,4,13,0.00
2013-4-9,78,62,46,53,43,37,96,59,23,30.06,29.93,34,8,36,0.00
2013-4-10,63,53,47,54,46,39,97,78,45,30.02,29.84,37,6,38,1.64
2013-4-11,57,51,46,55,47,39,100,87,64,30.10,29.82,16,6,20,0.01
2013-4-12,46,42,40,41,39,35,96,87,72,30.09,29.76,41,14,47,0.82
2013-4-13,54,46,39,41,38,33,96,77,47,30.00,29.78,21,7,24,0.04
2013-4-14,54,50,45,43,32,26,88,53,34,30.26,30.00,32,10,36,0.00
2013-4-15,50,45,40,40,32,26,82,61,47,30.43,30.26,17,5,18,0.00
2013-4-16,57,51,43,52,46,38,92,83,74,30.42,30.16,23,7,24,0.00
2013-4-17,69,59,52,54,41,32,92,56,26,30.33,30.14,21,6,23,0.00
2013-4-18,53,51,47,49,43,38,90,77,59,30.40,30.15,19,8,21,0.00
2013-4-19,65,58,52,60,56,50,100,94,83,30.16,29.69,25,10,27,0.00
2013-4-20,59,53,46,59,37,24,99,59,29,30.31,29.69,35,12,35,0.15
2013-4-21,51,44,36,33,24,18,63,45,28,30.66,30.30,31,9,32,0.00
2013-4-22,49,44,38,38,33,29,80,65,52,30.72,30.53,27,12,33,0.00
2013-4-23,52,45,39,41,37,31,87,74,65,30.54,30.14,26,8,29,0.00
2013-4-24,60,50,40,49,44,38,97,82,62,30.15,29.89,23,8,23,0.00
2013-4-25,63,53,47,52,34,21,97,52,21,30.30,29.90,33,10,36,0.00
2013-4-26,64,53,40,39,34,28,88,53,25,30.45,30.29,19,6,26,0.00
2013-4-27,64,54,44,41,34,28,67,47,29,30.46,30.31,17,7,19,0.00
2013-4-28,60,51,43,47,41,35,91,71,40,30.36,30.26,15,6,21,0.00
2013-4-29,55,53,51,49,46,40,88,78,63,30.29,30.24,11,4,12,0.02
2013-4-30,60,54,47,48,41,32,81,64,36,30.38,30.26,17,6,21,0.00